sensor_id;sensor_type;location;lat;lon;timestamp;temperature;humidity
40756;DHT22;26461;45.630;9.418;2023-05-10T00:01:41;16.60;99.90
40756;DHT22;26461;45.630;9.418;2023-05-10T00:04:52;16.50;99.90
40756;DHT22;26461;45.630;9.418;2023-05-10T00:08:00;16.50;99.90
40756;DHT22;26461;45.630;9.418;2023-05-10T00:11:13;16.50;99.90
40756;DHT22;26461;45.630;9.418;2023-05-10T00:14:24;16.50;99.90
40756;DHT22;26461;45.630;9.418;2023-05-10T00:17:30;16.50;99.90
40756;DHT22;26461;45.630;9.418;2023-05-10T00:20:35;16.50;99.90
40756;DHT22;26461;45.630;9.418;2023-05-10T00:23:47;16.40;99.90
40756;DHT22;26461;45.630;9.418;2023-05-10T00:26:53;16.40;99.90
40756;DHT22;26461;45.630;9.418;2023-05-10T00:30:01;16.40;99.90
40756;DHT22;26461;45.630;9.418;2023-05-10T00:33:13;16.40;99.90
40756;DHT22;26461;45.630;9.418;2023-05-10T00:36:24;16.30;99.90
40756;DHT22;26461;45.630;9.418;2023-05-10T00:39:42;16.30;99.90
40756;DHT22;26461;45.630;9.418;2023-05-10T00:42:51;16.30;99.90
40756;DHT22;26461;45.630;9.418;2023-05-10T00:46:01;16.30;99.90
40756;DHT22;26461;45.630;9.418;2023-05-10T00:49:19;16.30;99.90
40756;DHT22;26461;45.630;9.418;2023-05-10T00:52:32;16.30;99.90
40756;DHT22;26461;45.630;9.418;2023-05-10T00:55:37;16.30;99.90
40756;DHT22;26461;45.630;9.418;2023-05-10T00:58:58;16.20;99.90
40756;DHT22;26461;45.630;9.418;2023-05-10T01:02:15;16.20;99.90
40756;DHT22;26461;45.630;9.418;2023-05-10T01:05:24;16.20;99.90
40756;DHT22;26461;45.630;9.418;2023-05-10T01:08:35;16.20;99.90
40756;DHT22;26461;45.630;9.418;2023-05-10T01:11:52;16.10;99.90
40756;DHT22;26461;45.630;9.418;2023-05-10T01:15:05;16.00;99.90
40756;DHT22;26461;45.630;9.418;2023-05-10T01:18:13;16.00;99.90
40756;DHT22;26461;45.630;9.418;2023-05-10T01:21:43;16.00;99.90
40756;DHT22;26461;45.630;9.418;2023-05-10T01:25:02;16.00;99.90
40756;DHT22;26461;45.630;9.418;2023-05-10T01:35:31;16.00;99.90
40756;DHT22;26461;45.630;9.418;2023-05-10T01:38:50;16.00;99.90
40756;DHT22;26461;45.630;9.418;2023-05-10T01:42:16;15.90;99.90
40756;DHT22;26461;45.630;9.418;2023-05-10T01:45:47;15.90;99.90
40756;DHT22;26461;45.630;9.418;2023-05-10T01:48:57;15.90;99.90
40756;DHT22;26461;45.630;9.418;2023-05-10T01:52:12;15.80;99.90
40756;DHT22;26461;45.630;9.418;2023-05-10T01:55:21;15.80;99.90
40756;DHT22;26461;45.630;9.418;2023-05-10T01:58:39;15.80;99.90
40756;DHT22;26461;45.630;9.418;2023-05-10T02:01:51;15.80;99.90
40756;DHT22;26461;45.630;9.418;2023-05-10T02:05:06;15.70;99.90
40756;DHT22;26461;45.630;9.418;2023-05-10T02:08:13;15.70;99.90
40756;DHT22;26461;45.630;9.418;2023-05-10T02:11:23;15.70;99.90
40756;DHT22;26461;45.630;9.418;2023-05-10T02:14:35;15.70;99.90
40756;DHT22;26461;45.630;9.418;2023-05-10T02:17:46;15.70;99.90
40756;DHT22;26461;45.630;9.418;2023-05-10T02:21:03;15.60;99.90
40756;DHT22;26461;45.630;9.418;2023-05-10T02:24:22;15.60;99.90
40756;DHT22;26461;45.630;9.418;2023-05-10T02:27:32;15.60;99.90
40756;DHT22;26461;45.630;9.418;2023-05-10T02:30:41;15.50;99.90
40756;DHT22;26461;45.630;9.418;2023-05-10T02:33:50;15.50;99.90
40756;DHT22;26461;45.630;9.418;2023-05-10T02:36:56;15.50;99.90
40756;DHT22;26461;45.630;9.418;2023-05-10T02:40:10;15.50;99.90
40756;DHT22;26461;45.630;9.418;2023-05-10T02:43:17;15.60;99.90
40756;DHT22;26461;45.630;9.418;2023-05-10T02:46:33;15.50;99.90
40756;DHT22;26461;45.630;9.418;2023-05-10T02:49:42;15.50;99.90
40756;DHT22;26461;45.630;9.418;2023-05-10T02:53:00;15.50;99.90
40756;DHT22;26461;45.630;9.418;2023-05-10T02:56:24;15.50;99.90
40756;DHT22;26461;45.630;9.418;2023-05-10T02:59:33;15.50;99.90
40756;DHT22;26461;45.630;9.418;2023-05-10T03:02:39;15.50;99.90
40756;DHT22;26461;45.630;9.418;2023-05-10T03:05:48;15.50;99.90
40756;DHT22;26461;45.630;9.418;2023-05-10T03:08:53;15.50;99.90
40756;DHT22;26461;45.630;9.418;2023-05-10T03:16:14;15.50;99.90
40756;DHT22;26461;45.630;9.418;2023-05-10T03:19:32;15.50;99.90
40756;DHT22;26461;45.630;9.418;2023-05-10T03:22:52;15.40;99.90
40756;DHT22;26461;45.630;9.418;2023-05-10T03:26:02;15.40;99.90
40756;DHT22;26461;45.630;9.418;2023-05-10T03:29:14;15.40;99.90
40756;DHT22;26461;45.630;9.418;2023-05-10T03:32:26;15.40;99.90
40756;DHT22;26461;45.630;9.418;2023-05-10T03:35:35;15.40;99.90
40756;DHT22;26461;45.630;9.418;2023-05-10T03:38:55;15.40;99.90
40756;DHT22;26461;45.630;9.418;2023-05-10T03:42:11;15.40;99.90
40756;DHT22;26461;45.630;9.418;2023-05-10T03:45:23;15.30;99.90
40756;DHT22;26461;45.630;9.418;2023-05-10T03:48:39;15.30;99.90
40756;DHT22;26461;45.630;9.418;2023-05-10T03:51:58;15.30;99.90
40756;DHT22;26461;45.630;9.418;2023-05-10T03:55:05;15.30;99.90
40756;DHT22;26461;45.630;9.418;2023-05-10T03:58:11;15.30;99.90
40756;DHT22;26461;45.630;9.418;2023-05-10T04:01:38;15.30;99.90
40756;DHT22;26461;45.630;9.418;2023-05-10T04:04:44;15.30;99.90
40756;DHT22;26461;45.630;9.418;2023-05-10T04:07:58;15.30;99.90
40756;DHT22;26461;45.630;9.418;2023-05-10T04:11:07;15.30;99.90
40756;DHT22;26461;45.630;9.418;2023-05-10T04:14:23;15.30;99.90
40756;DHT22;26461;45.630;9.418;2023-05-10T04:17:28;15.30;99.90
40756;DHT22;26461;45.630;9.418;2023-05-10T04:20:34;15.30;99.90
40756;DHT22;26461;45.630;9.418;2023-05-10T04:23:39;15.30;99.90
40756;DHT22;26461;45.630;9.418;2023-05-10T04:26:51;15.30;99.90
40756;DHT22;26461;45.630;9.418;2023-05-10T04:30:05;15.30;99.90
40756;DHT22;26461;45.630;9.418;2023-05-10T04:33:12;15.30;99.90
40756;DHT22;26461;45.630;9.418;2023-05-10T04:36:32;15.30;99.90
40756;DHT22;26461;45.630;9.418;2023-05-10T04:39:59;15.30;99.90
40756;DHT22;26461;45.630;9.418;2023-05-10T04:43:08;15.30;99.90
40756;DHT22;26461;45.630;9.418;2023-05-10T04:46:17;15.30;99.90
40756;DHT22;26461;45.630;9.418;2023-05-10T04:49:40;15.30;99.90
40756;DHT22;26461;45.630;9.418;2023-05-10T04:53:02;15.20;99.90
40756;DHT22;26461;45.630;9.418;2023-05-10T04:56:16;15.20;99.90
40756;DHT22;26461;45.630;9.418;2023-05-10T04:59:33;15.20;99.90
40756;DHT22;26461;45.630;9.418;2023-05-10T05:02:54;15.20;99.90
40756;DHT22;26461;45.630;9.418;2023-05-10T05:06:08;15.20;99.90
40756;DHT22;26461;45.630;9.418;2023-05-10T05:09:19;15.20;99.90
40756;DHT22;26461;45.630;9.418;2023-05-10T05:12:30;15.20;99.90
40756;DHT22;26461;45.630;9.418;2023-05-10T05:15:44;15.10;99.90
40756;DHT22;26461;45.630;9.418;2023-05-10T05:19:00;15.20;99.90
40756;DHT22;26461;45.630;9.418;2023-05-10T05:22:29;15.20;99.90
40756;DHT22;26461;45.630;9.418;2023-05-10T05:25:35;15.20;99.90
40756;DHT22;26461;45.630;9.418;2023-05-10T05:28:54;15.30;99.90
40756;DHT22;26461;45.630;9.418;2023-05-10T05:32:15;15.30;99.90
40756;DHT22;26461;45.630;9.418;2023-05-10T05:35:27;15.20;99.90
40756;DHT22;26461;45.630;9.418;2023-05-10T05:38:35;15.20;99.90
40756;DHT22;26461;45.630;9.418;2023-05-10T05:41:50;15.20;99.90
40756;DHT22;26461;45.630;9.418;2023-05-10T05:45:06;15.20;99.90
40756;DHT22;26461;45.630;9.418;2023-05-10T05:48:28;15.20;99.90
40756;DHT22;26461;45.630;9.418;2023-05-10T05:51:44;15.20;99.90
40756;DHT22;26461;45.630;9.418;2023-05-10T05:54:53;15.20;99.90
40756;DHT22;26461;45.630;9.418;2023-05-10T05:58:07;15.20;99.90
40756;DHT22;26461;45.630;9.418;2023-05-10T06:01:17;15.30;99.90
40756;DHT22;26461;45.630;9.418;2023-05-10T06:04:34;15.30;99.90
40756;DHT22;26461;45.630;9.418;2023-05-10T06:07:48;15.30;99.90
40756;DHT22;26461;45.630;9.418;2023-05-10T06:11:06;15.30;99.90
40756;DHT22;26461;45.630;9.418;2023-05-10T06:14:17;15.30;99.90
40756;DHT22;26461;45.630;9.418;2023-05-10T06:17:30;15.20;99.90
40756;DHT22;26461;45.630;9.418;2023-05-10T06:20:55;15.20;99.90
40756;DHT22;26461;45.630;9.418;2023-05-10T06:24:09;15.20;99.90
40756;DHT22;26461;45.630;9.418;2023-05-10T06:27:33;15.20;99.90
40756;DHT22;26461;45.630;9.418;2023-05-10T06:30:42;15.20;99.90
40756;DHT22;26461;45.630;9.418;2023-05-10T06:34:00;15.20;99.90
40756;DHT22;26461;45.630;9.418;2023-05-10T06:37:09;15.20;99.90
40756;DHT22;26461;45.630;9.418;2023-05-10T06:40:23;15.20;99.90
40756;DHT22;26461;45.630;9.418;2023-05-10T06:43:39;15.30;99.90
40756;DHT22;26461;45.630;9.418;2023-05-10T06:47:05;15.30;99.90
40756;DHT22;26461;45.630;9.418;2023-05-10T06:50:16;15.30;99.90
40756;DHT22;26461;45.630;9.418;2023-05-10T06:53:28;15.40;99.90
40756;DHT22;26461;45.630;9.418;2023-05-10T06:56:39;15.40;99.90
40756;DHT22;26461;45.630;9.418;2023-05-10T06:59:50;15.40;99.90
40756;DHT22;26461;45.630;9.418;2023-05-10T07:03:13;15.30;99.90
40756;DHT22;26461;45.630;9.418;2023-05-10T07:06:29;15.30;99.90
40756;DHT22;26461;45.630;9.418;2023-05-10T07:09:38;15.30;99.90
40756;DHT22;26461;45.630;9.418;2023-05-10T07:12:49;15.30;99.90
40756;DHT22;26461;45.630;9.418;2023-05-10T07:16:00;15.30;99.90
40756;DHT22;26461;45.630;9.418;2023-05-10T07:19:07;15.30;99.90
40756;DHT22;26461;45.630;9.418;2023-05-10T07:22:12;15.30;99.90
40756;DHT22;26461;45.630;9.418;2023-05-10T07:25:23;15.30;99.90
40756;DHT22;26461;45.630;9.418;2023-05-10T07:28:29;15.30;99.90
40756;DHT22;26461;45.630;9.418;2023-05-10T07:31:34;15.30;99.90
40756;DHT22;26461;45.630;9.418;2023-05-10T07:34:40;15.30;99.90
40756;DHT22;26461;45.630;9.418;2023-05-10T07:37:46;15.30;99.90
40756;DHT22;26461;45.630;9.418;2023-05-10T07:40:51;15.30;99.90
40756;DHT22;26461;45.630;9.418;2023-05-10T07:43:58;15.40;99.90
40756;DHT22;26461;45.630;9.418;2023-05-10T07:47:04;15.40;99.90
40756;DHT22;26461;45.630;9.418;2023-05-10T07:50:10;15.40;99.90
40756;DHT22;26461;45.630;9.418;2023-05-10T07:53:15;15.40;99.90
40756;DHT22;26461;45.630;9.418;2023-05-10T07:56:29;15.50;99.90
40756;DHT22;26461;45.630;9.418;2023-05-10T07:59:34;15.50;99.90
40756;DHT22;26461;45.630;9.418;2023-05-10T08:02:44;15.60;99.90
40756;DHT22;26461;45.630;9.418;2023-05-10T08:05:50;15.60;99.90
40756;DHT22;26461;45.630;9.418;2023-05-10T08:08:56;15.60;99.90
40756;DHT22;26461;45.630;9.418;2023-05-10T08:12:05;15.70;99.90
40756;DHT22;26461;45.630;9.418;2023-05-10T08:15:19;15.70;99.90
40756;DHT22;26461;45.630;9.418;2023-05-10T08:18:28;15.70;99.90
40756;DHT22;26461;45.630;9.418;2023-05-10T08:21:33;15.70;99.90
40756;DHT22;26461;45.630;9.418;2023-05-10T08:24:39;15.70;99.90
40756;DHT22;26461;45.630;9.418;2023-05-10T08:27:52;15.70;99.90
40756;DHT22;26461;45.630;9.418;2023-05-10T08:31:01;15.70;99.90
40756;DHT22;26461;45.630;9.418;2023-05-10T08:34:16;15.80;99.90
40756;DHT22;26461;45.630;9.418;2023-05-10T08:37:34;15.80;99.90
40756;DHT22;26461;45.630;9.418;2023-05-10T08:40:56;15.80;99.90
40756;DHT22;26461;45.630;9.418;2023-05-10T08:44:17;15.80;99.90
40756;DHT22;26461;45.630;9.418;2023-05-10T08:47:38;15.90;99.90
40756;DHT22;26461;45.630;9.418;2023-05-10T08:50:58;15.90;99.90
40756;DHT22;26461;45.630;9.418;2023-05-10T08:54:11;15.90;99.90
40756;DHT22;26461;45.630;9.418;2023-05-10T08:57:22;15.90;99.90
40756;DHT22;26461;45.630;9.418;2023-05-10T09:00:51;15.90;99.90
40756;DHT22;26461;45.630;9.418;2023-05-10T09:04:03;15.90;99.90
40756;DHT22;26461;45.630;9.418;2023-05-10T09:07:16;15.90;99.90
40756;DHT22;26461;45.630;9.418;2023-05-10T09:10:25;16.00;99.90
40756;DHT22;26461;45.630;9.418;2023-05-10T09:13:37;16.00;99.90
40756;DHT22;26461;45.630;9.418;2023-05-10T09:16:55;16.10;99.90
40756;DHT22;26461;45.630;9.418;2023-05-10T09:20:04;16.10;99.90
40756;DHT22;26461;45.630;9.418;2023-05-10T09:23:18;16.20;99.90
40756;DHT22;26461;45.630;9.418;2023-05-10T09:26:32;16.20;99.90
40756;DHT22;26461;45.630;9.418;2023-05-10T09:29:47;16.20;99.90
40756;DHT22;26461;45.630;9.418;2023-05-10T09:32:55;16.20;99.90
40756;DHT22;26461;45.630;9.418;2023-05-10T09:36:07;16.20;99.90
40756;DHT22;26461;45.630;9.418;2023-05-10T09:39:38;16.20;99.90
40756;DHT22;26461;45.630;9.418;2023-05-10T09:43:25;16.20;99.90
40756;DHT22;26461;45.630;9.418;2023-05-10T09:46:36;16.20;99.90
40756;DHT22;26461;45.630;9.418;2023-05-10T09:49:42;16.20;99.90
40756;DHT22;26461;45.630;9.418;2023-05-10T09:52:56;16.20;99.90
40756;DHT22;26461;45.630;9.418;2023-05-10T09:56:34;16.30;99.90
40756;DHT22;26461;45.630;9.418;2023-05-10T09:59:45;16.30;99.90
40756;DHT22;26461;45.630;9.418;2023-05-10T10:03:03;16.30;99.90
40756;DHT22;26461;45.630;9.418;2023-05-10T10:06:19;16.20;99.90
40756;DHT22;26461;45.630;9.418;2023-05-10T10:09:30;16.20;99.90
40756;DHT22;26461;45.630;9.418;2023-05-10T10:12:37;16.20;99.90
40756;DHT22;26461;45.630;9.418;2023-05-10T10:15:49;16.10;99.90
40756;DHT22;26461;45.630;9.418;2023-05-10T10:19:07;16.10;99.90
40756;DHT22;26461;45.630;9.418;2023-05-10T10:22:26;16.10;99.90
40756;DHT22;26461;45.630;9.418;2023-05-10T10:25:43;16.00;99.90
40756;DHT22;26461;45.630;9.418;2023-05-10T10:29:27;16.00;99.90
40756;DHT22;26461;45.630;9.418;2023-05-10T10:33:27;16.00;99.90
40756;DHT22;26461;45.630;9.418;2023-05-10T10:36:29;16.00;99.90
40756;DHT22;26461;45.630;9.418;2023-05-10T10:39:42;16.00;99.90
40756;DHT22;26461;45.630;9.418;2023-05-10T10:43:31;16.00;99.90
40756;DHT22;26461;45.630;9.418;2023-05-10T10:50:15;16.00;99.90
40756;DHT22;26461;45.630;9.418;2023-05-10T10:53:36;16.00;99.90
40756;DHT22;26461;45.630;9.418;2023-05-10T10:56:44;16.00;99.90
40756;DHT22;26461;45.630;9.418;2023-05-10T11:00:22;16.00;99.90
40756;DHT22;26461;45.630;9.418;2023-05-10T11:03:34;16.00;99.90
40756;DHT22;26461;45.630;9.418;2023-05-10T11:06:46;16.00;99.90
40756;DHT22;26461;45.630;9.418;2023-05-10T11:10:04;16.00;99.90
40756;DHT22;26461;45.630;9.418;2023-05-10T11:16:46;15.90;99.90
40756;DHT22;26461;45.630;9.418;2023-05-10T11:20:08;15.90;99.90
40756;DHT22;26461;45.630;9.418;2023-05-10T11:23:48;15.80;99.90
40756;DHT22;26461;45.630;9.418;2023-05-10T11:26:54;15.90;99.90
40756;DHT22;26461;45.630;9.418;2023-05-10T11:30:04;15.90;99.90
40756;DHT22;26461;45.630;9.418;2023-05-10T11:33:19;15.90;99.90
40756;DHT22;26461;45.630;9.418;2023-05-10T11:36:37;15.80;99.90
40756;DHT22;26461;45.630;9.418;2023-05-10T11:39:54;15.80;99.90
40756;DHT22;26461;45.630;9.418;2023-05-10T11:43:05;15.80;99.90
40756;DHT22;26461;45.630;9.418;2023-05-10T11:46:25;15.70;99.90
40756;DHT22;26461;45.630;9.418;2023-05-10T11:49:36;15.70;99.90
40756;DHT22;26461;45.630;9.418;2023-05-10T11:52:42;15.70;99.90
40756;DHT22;26461;45.630;9.418;2023-05-10T11:55:58;15.70;99.90
40756;DHT22;26461;45.630;9.418;2023-05-10T11:59:15;15.60;99.90
40756;DHT22;26461;45.630;9.418;2023-05-10T12:02:22;15.60;99.90
40756;DHT22;26461;45.630;9.418;2023-05-10T12:05:38;15.60;99.90
40756;DHT22;26461;45.630;9.418;2023-05-10T12:09:06;15.60;99.90
40756;DHT22;26461;45.630;9.418;2023-05-10T12:12:24;15.60;99.90
40756;DHT22;26461;45.630;9.418;2023-05-10T12:15:30;15.60;99.90
40756;DHT22;26461;45.630;9.418;2023-05-10T12:18:42;15.60;99.90
40756;DHT22;26461;45.630;9.418;2023-05-10T12:21:51;15.50;99.90
40756;DHT22;26461;45.630;9.418;2023-05-10T12:24:59;15.50;99.90
40756;DHT22;26461;45.630;9.418;2023-05-10T12:28:09;15.50;99.90
40756;DHT22;26461;45.630;9.418;2023-05-10T12:31:51;15.50;99.90
40756;DHT22;26461;45.630;9.418;2023-05-10T12:35:08;15.50;99.90
40756;DHT22;26461;45.630;9.418;2023-05-10T12:38:32;15.50;99.90
40756;DHT22;26461;45.630;9.418;2023-05-10T12:41:48;15.50;99.90
40756;DHT22;26461;45.630;9.418;2023-05-10T12:44:57;15.40;99.90
40756;DHT22;26461;45.630;9.418;2023-05-10T12:48:05;15.50;99.90
40756;DHT22;26461;45.630;9.418;2023-05-10T12:51:27;15.50;99.90
40756;DHT22;26461;45.630;9.418;2023-05-10T12:54:39;15.50;99.90
40756;DHT22;26461;45.630;9.418;2023-05-10T12:57:52;15.50;99.90
40756;DHT22;26461;45.630;9.418;2023-05-10T13:01:09;15.50;99.90
40756;DHT22;26461;45.630;9.418;2023-05-10T13:04:30;15.50;99.90
40756;DHT22;26461;45.630;9.418;2023-05-10T13:07:38;15.50;99.90
40756;DHT22;26461;45.630;9.418;2023-05-10T13:10:45;15.50;99.90
40756;DHT22;26461;45.630;9.418;2023-05-10T13:14:04;15.50;99.90
40756;DHT22;26461;45.630;9.418;2023-05-10T13:17:22;15.50;99.90
40756;DHT22;26461;45.630;9.418;2023-05-10T13:20:31;15.50;99.90
40756;DHT22;26461;45.630;9.418;2023-05-10T13:23:40;15.50;99.90
40756;DHT22;26461;45.630;9.418;2023-05-10T13:26:45;15.50;99.90
40756;DHT22;26461;45.630;9.418;2023-05-10T13:29:57;15.50;99.90
40756;DHT22;26461;45.630;9.418;2023-05-10T13:33:12;15.50;99.90
40756;DHT22;26461;45.630;9.418;2023-05-10T13:36:23;15.50;99.90
40756;DHT22;26461;45.630;9.418;2023-05-10T13:39:34;15.50;99.90
40756;DHT22;26461;45.630;9.418;2023-05-10T13:42:45;15.50;99.90
40756;DHT22;26461;45.630;9.418;2023-05-10T13:45:51;15.50;99.90
40756;DHT22;26461;45.630;9.418;2023-05-10T13:49:02;15.50;99.90
40756;DHT22;26461;45.630;9.418;2023-05-10T13:52:07;15.50;99.90
40756;DHT22;26461;45.630;9.418;2023-05-10T13:55:26;15.50;99.90
40756;DHT22;26461;45.630;9.418;2023-05-10T13:58:45;15.50;99.90
40756;DHT22;26461;45.630;9.418;2023-05-10T14:02:07;15.60;99.90
40756;DHT22;26461;45.630;9.418;2023-05-10T14:05:14;15.60;99.90
40756;DHT22;26461;45.630;9.418;2023-05-10T14:08:27;15.60;99.90
40756;DHT22;26461;45.630;9.418;2023-05-10T14:11:53;15.70;99.90
40756;DHT22;26461;45.630;9.418;2023-05-10T14:15:10;15.80;99.90
40756;DHT22;26461;45.630;9.418;2023-05-10T14:18:17;15.80;99.90
40756;DHT22;26461;45.630;9.418;2023-05-10T14:21:33;15.90;99.90
40756;DHT22;26461;45.630;9.418;2023-05-10T14:24:50;15.90;99.90
40756;DHT22;26461;45.630;9.418;2023-05-10T14:28:04;16.00;99.90
40756;DHT22;26461;45.630;9.418;2023-05-10T14:31:25;16.00;99.90
40756;DHT22;26461;45.630;9.418;2023-05-10T14:34:32;16.00;99.90
40756;DHT22;26461;45.630;9.418;2023-05-10T14:37:38;16.00;99.90
40756;DHT22;26461;45.630;9.418;2023-05-10T14:40:46;16.00;99.90
40756;DHT22;26461;45.630;9.418;2023-05-10T14:44:00;16.00;99.90
40756;DHT22;26461;45.630;9.418;2023-05-10T14:47:14;16.00;99.90
40756;DHT22;26461;45.630;9.418;2023-05-10T14:50:22;16.00;99.90
40756;DHT22;26461;45.630;9.418;2023-05-10T14:53:41;15.90;99.90
40756;DHT22;26461;45.630;9.418;2023-05-10T14:56:54;15.90;99.90
40756;DHT22;26461;45.630;9.418;2023-05-10T15:00:14;15.90;99.90
40756;DHT22;26461;45.630;9.418;2023-05-10T15:03:24;15.90;99.90
40756;DHT22;26461;45.630;9.418;2023-05-10T15:06:34;15.90;99.90
40756;DHT22;26461;45.630;9.418;2023-05-10T15:09:44;15.90;99.90
40756;DHT22;26461;45.630;9.418;2023-05-10T15:12:50;15.90;99.90
40756;DHT22;26461;45.630;9.418;2023-05-10T15:15:56;15.90;99.90
40756;DHT22;26461;45.630;9.418;2023-05-10T15:19:05;15.90;99.90
40756;DHT22;26461;45.630;9.418;2023-05-10T15:22:19;15.90;99.90
40756;DHT22;26461;45.630;9.418;2023-05-10T15:25:34;15.90;99.90
40756;DHT22;26461;45.630;9.418;2023-05-10T15:28:41;15.90;99.90
40756;DHT22;26461;45.630;9.418;2023-05-10T15:31:55;15.80;99.90
40756;DHT22;26461;45.630;9.418;2023-05-10T15:35:07;15.80;99.90
40756;DHT22;26461;45.630;9.418;2023-05-10T15:38:18;15.80;99.90
40756;DHT22;26461;45.630;9.418;2023-05-10T15:41:26;15.80;99.90
40756;DHT22;26461;45.630;9.418;2023-05-10T15:44:35;15.80;99.90
40756;DHT22;26461;45.630;9.418;2023-05-10T15:47:46;15.80;99.90
40756;DHT22;26461;45.630;9.418;2023-05-10T15:50:55;15.80;99.90
40756;DHT22;26461;45.630;9.418;2023-05-10T15:54:00;15.80;99.90
40756;DHT22;26461;45.630;9.418;2023-05-10T15:57:24;15.70;99.90
40756;DHT22;26461;45.630;9.418;2023-05-10T16:00:30;15.70;99.90
40756;DHT22;26461;45.630;9.418;2023-05-10T16:03:40;15.70;99.90
40756;DHT22;26461;45.630;9.418;2023-05-10T16:06:47;15.70;99.90
40756;DHT22;26461;45.630;9.418;2023-05-10T16:09:52;15.70;99.90
40756;DHT22;26461;45.630;9.418;2023-05-10T16:12:58;15.70;99.90
40756;DHT22;26461;45.630;9.418;2023-05-10T16:16:04;15.80;99.90
40756;DHT22;26461;45.630;9.418;2023-05-10T16:19:17;15.80;99.90
40756;DHT22;26461;45.630;9.418;2023-05-10T16:22:24;15.80;99.90
40756;DHT22;26461;45.630;9.418;2023-05-10T16:25:36;15.80;99.90
40756;DHT22;26461;45.630;9.418;2023-05-10T16:28:50;15.80;99.90
40756;DHT22;26461;45.630;9.418;2023-05-10T16:31:56;15.70;99.90
40756;DHT22;26461;45.630;9.418;2023-05-10T16:35:02;15.70;99.90
40756;DHT22;26461;45.630;9.418;2023-05-10T16:38:11;15.70;99.90
40756;DHT22;26461;45.630;9.418;2023-05-10T16:41:17;15.70;99.90
40756;DHT22;26461;45.630;9.418;2023-05-10T16:44:37;15.70;99.90
40756;DHT22;26461;45.630;9.418;2023-05-10T16:47:53;15.70;99.90
40756;DHT22;26461;45.630;9.418;2023-05-10T16:51:02;15.70;99.90
40756;DHT22;26461;45.630;9.418;2023-05-10T16:54:14;15.70;99.90
40756;DHT22;26461;45.630;9.418;2023-05-10T16:57:27;15.70;99.90
40756;DHT22;26461;45.630;9.418;2023-05-10T17:00:33;15.70;99.90
40756;DHT22;26461;45.630;9.418;2023-05-10T17:03:40;15.70;99.90
40756;DHT22;26461;45.630;9.418;2023-05-10T17:06:47;15.80;99.90
40756;DHT22;26461;45.630;9.418;2023-05-10T17:09:57;15.80;99.90
40756;DHT22;26461;45.630;9.418;2023-05-10T17:13:10;15.80;99.90
40756;DHT22;26461;45.630;9.418;2023-05-10T17:16:30;15.80;99.90
40756;DHT22;26461;45.630;9.418;2023-05-10T17:19:46;15.80;99.90
40756;DHT22;26461;45.630;9.418;2023-05-10T17:22:52;15.80;99.90
40756;DHT22;26461;45.630;9.418;2023-05-10T17:25:58;15.80;99.90
40756;DHT22;26461;45.630;9.418;2023-05-10T17:29:13;15.80;99.90
40756;DHT22;26461;45.630;9.418;2023-05-10T17:32:27;15.80;99.90
40756;DHT22;26461;45.630;9.418;2023-05-10T17:35:43;15.80;99.90
40756;DHT22;26461;45.630;9.418;2023-05-10T17:38:57;15.90;99.90
40756;DHT22;26461;45.630;9.418;2023-05-10T17:42:11;15.90;99.90
40756;DHT22;26461;45.630;9.418;2023-05-10T17:45:30;15.90;99.90
40756;DHT22;26461;45.630;9.418;2023-05-10T17:48:43;15.90;99.90
40756;DHT22;26461;45.630;9.418;2023-05-10T17:52:00;15.90;99.90
40756;DHT22;26461;45.630;9.418;2023-05-10T17:55:15;15.90;99.90
40756;DHT22;26461;45.630;9.418;2023-05-10T17:58:21;15.90;99.90
40756;DHT22;26461;45.630;9.418;2023-05-10T18:01:33;15.90;99.90
40756;DHT22;26461;45.630;9.418;2023-05-10T18:04:41;15.80;99.90
40756;DHT22;26461;45.630;9.418;2023-05-10T18:07:47;15.80;99.90
40756;DHT22;26461;45.630;9.418;2023-05-10T18:10:53;15.80;99.90
40756;DHT22;26461;45.630;9.418;2023-05-10T18:13:59;15.70;99.90
40756;DHT22;26461;45.630;9.418;2023-05-10T18:17:07;15.70;99.90
40756;DHT22;26461;45.630;9.418;2023-05-10T18:20:19;15.70;99.90
40756;DHT22;26461;45.630;9.418;2023-05-10T18:23:30;15.70;99.90
40756;DHT22;26461;45.630;9.418;2023-05-10T18:26:35;15.70;99.90
40756;DHT22;26461;45.630;9.418;2023-05-10T18:29:41;15.60;99.90
40756;DHT22;26461;45.630;9.418;2023-05-10T18:32:49;15.60;99.90
40756;DHT22;26461;45.630;9.418;2023-05-10T18:36:03;15.60;99.90
40756;DHT22;26461;45.630;9.418;2023-05-10T18:39:13;15.60;99.90
40756;DHT22;26461;45.630;9.418;2023-05-10T18:42:26;15.60;99.90
40756;DHT22;26461;45.630;9.418;2023-05-10T18:45:31;15.60;99.90
40756;DHT22;26461;45.630;9.418;2023-05-10T18:48:40;15.50;99.90
40756;DHT22;26461;45.630;9.418;2023-05-10T18:52:00;15.50;99.90
40756;DHT22;26461;45.630;9.418;2023-05-10T18:55:27;15.40;99.90
40756;DHT22;26461;45.630;9.418;2023-05-10T18:58:36;15.40;99.90
40756;DHT22;26461;45.630;9.418;2023-05-10T19:01:42;15.40;99.90
40756;DHT22;26461;45.630;9.418;2023-05-10T19:04:50;15.40;99.90
40756;DHT22;26461;45.630;9.418;2023-05-10T19:07:58;15.40;99.90
40756;DHT22;26461;45.630;9.418;2023-05-10T19:11:05;15.40;99.90
40756;DHT22;26461;45.630;9.418;2023-05-10T19:14:14;15.30;99.90
40756;DHT22;26461;45.630;9.418;2023-05-10T19:17:19;15.30;99.90
40756;DHT22;26461;45.630;9.418;2023-05-10T19:20:25;15.30;99.90
40756;DHT22;26461;45.630;9.418;2023-05-10T19:23:33;15.30;99.90
40756;DHT22;26461;45.630;9.418;2023-05-10T19:26:39;15.20;99.90
40756;DHT22;26461;45.630;9.418;2023-05-10T19:29:50;15.20;99.90
40756;DHT22;26461;45.630;9.418;2023-05-10T19:33:01;15.20;99.90
40756;DHT22;26461;45.630;9.418;2023-05-10T19:36:13;15.20;99.90
40756;DHT22;26461;45.630;9.418;2023-05-10T19:39:20;15.20;99.90
40756;DHT22;26461;45.630;9.418;2023-05-10T19:42:31;15.20;99.90
40756;DHT22;26461;45.630;9.418;2023-05-10T19:45:41;15.20;99.90
40756;DHT22;26461;45.630;9.418;2023-05-10T19:48:49;15.20;99.90
40756;DHT22;26461;45.630;9.418;2023-05-10T19:52:03;15.20;99.90
40756;DHT22;26461;45.630;9.418;2023-05-10T19:55:28;15.20;99.90
40756;DHT22;26461;45.630;9.418;2023-05-10T19:58:34;15.20;99.90
40756;DHT22;26461;45.630;9.418;2023-05-10T20:01:46;15.20;99.90
40756;DHT22;26461;45.630;9.418;2023-05-10T20:04:51;15.20;99.90
40756;DHT22;26461;45.630;9.418;2023-05-10T20:07:57;15.20;99.90
40756;DHT22;26461;45.630;9.418;2023-05-10T20:11:04;15.30;99.90
40756;DHT22;26461;45.630;9.418;2023-05-10T20:14:14;15.30;99.90
40756;DHT22;26461;45.630;9.418;2023-05-10T20:17:25;15.30;99.90
40756;DHT22;26461;45.630;9.418;2023-05-10T20:20:36;15.30;99.90
40756;DHT22;26461;45.630;9.418;2023-05-10T20:23:44;15.30;99.90
40756;DHT22;26461;45.630;9.418;2023-05-10T20:26:57;15.30;99.90
40756;DHT22;26461;45.630;9.418;2023-05-10T20:30:09;15.30;99.90
40756;DHT22;26461;45.630;9.418;2023-05-10T20:33:20;15.30;99.90
40756;DHT22;26461;45.630;9.418;2023-05-10T20:36:26;15.30;99.90